CST,Max TemperatureF,Mean TemperatureF,Min TemperatureF,Max Dew PointF,MeanDew PointF,Min DewpointF,Max Humidity, Mean Humidity, Min Humidity, Max Sea Level PressureIn, Mean Sea Level PressureIn, Min Sea Level PressureIn, Max VisibilityMiles, Mean VisibilityMiles, Min VisibilityMiles, Max Wind SpeedMPH, Mean Wind SpeedMPH, Max Gust SpeedMPH,PrecipitationIn, CloudCover, Events, WindDirDegrees
2013-1-1,17,3,-11,16,3,-15,93,88,77,30.16,30.00,29.83,10,9,1,13,6,18,0.00,5,Snow,209
2013-1-2,23,18,12,21,17,10,100,92,86,30.09,29.88,29.79,10,7,1,12,4,17,0.01,8,Snow,242
2013-1-3,19,10,0,16,8,-4,92,86,79,30.16,30.01,29.81,10,9,5,21,10,28,0.00,4,Snow,238
2013-1-4,26,13,0,19,11,-4,93,84,74,30.06,29.97,29.85,10,10,10,13,8,17,0.00,0,,229
2013-1-5,24,11,-2,30,6,-8,93,85,74,30.03,29.96,29.90,10,10,10,8,1,,0.00,2,,324
2013-1-6,19,6,-5,16,4,-9,93,79,58,30.14,30.01,29.71,10,10,10,13,4,22,0.00,0,,197
2013-1-7,32,24,17,27,22,16,93,84,80,29.84,29.69,29.59,10,10,10,22,12,29,0.00,5,,218
2013-1-8,32,22,12,28,21,10,100,90,74,29.85,29.73,29.59,10,9,2,17,6,22,0.00,4,Snow,165
2013-1-9,30,26,21,27,21,18,93,83,74,30.20,29.97,29.61,10,9,1,25,15,37,0.00,6,Snow,228
2013-1-10,51,38,26,30,23,18,81,56,35,30.07,29.88,29.59,10,10,10,18,11,33,0.00,1,,160
2013-1-11,33,26,19,34,31,19,100,95,87,29.60,29.47,29.36,10,4,1,14,3,20,0.20,8,Rain-Snow,34
2013-1-12,17,8,0,16,4,-4,100,85,67,30.07,29.73,29.36,10,6,1,16,10,22,0.00,8,Snow,307
2013-1-13,3,-3,-9,0,-6,-13,92,82,78,30.14,30.07,30.02,10,10,7,15,7,20,0.00,4,Snow,266
2013-1-14,8,4,0,3,-1,-6,92,81,72,30.24,30.19,30.13,10,10,4,13,7,17,0.00,6,Snow,223
2013-1-15,23,12,1,18,8,0,92,78,63,30.13,29.84,29.46,10,10,2,13,6,22,0.00,4,Snow,187
2013-1-16,24,8,-7,25,4,-17,100,79,61,30.22,29.85,29.43,10,9,2,17,11,23,0.00,5,Snow,295
2013-1-17,6,-2,-9,0,-8,-17,92,75,65,30.31,30.26,30.16,10,9,5,9,6,,0.00,5,Snow,252
2013-1-18,17,8,0,14,7,-4,93,85,78,30.15,29.83,29.69,10,6,1,9,4,,0.03,8,Snow,85
2013-1-19,23,8,-9,21,6,-13,100,86,72,30.21,29.82,29.56,10,7,0,20,8,29,0.00,7,Snow,297
2013-1-20,-2,-9,-16,-8,-14,-20,84,77,66,30.27,30.23,30.20,10,8,2,15,8,23,0.00,3,Snow,262
2013-1-21,-9,-14,-20,-18,-22,-26,84,72,65,30.21,30.18,30.15,10,10,4,14,11,20,0.00,1,Snow,261
2013-1-22,-2,-14,-25,-9,-18,-31,84,76,65,30.24,30.19,30.08,10,10,10,10,6,,0.00,1,,234
2013-1-23,1,-10,-20,-2,-16,-26,85,70,54,30.60,30.33,30.04,10,10,5,16,8,23,0.00,3,,305
2013-1-24,3,-11,-25,-2,-18,-33,85,72,55,30.60,30.39,29.98,10,9,2,12,4,17,0.00,4,Snow,124
2013-1-25,8,-3,-14,3,-4,-18,92,79,62,30.27,30.04,29.80,10,8,1,14,6,18,0.03,3,Snow,275
2013-1-26,14,-2,-18,7,-5,-24,92,73,57,30.27,30.14,30.04,10,10,10,12,4,17,0.00,6,,144
2013-1-27,32,18,5,19,12,1,86,74,55,30.05,29.91,29.80,10,10,10,9,5,,0.00,2,,97
2013-1-28,33,28,24,30,27,19,100,90,80,29.81,29.76,29.69,10,5,1,6,1,,0.28,8,Snow,159
2013-1-29,28,20,10,28,20,7,100,90,79,29.85,29.70,29.59,10,7,1,13,4,17,0.11,8,Snow,305
2013-1-30,10,5,0,7,1,-6,92,80,73,29.84,29.76,29.71,10,9,2,12,8,16,0.00,8,Snow,314
2013-1-31,0,-12,-23,-6,-13,-29,85,76,65,30.17,29.99,29.76,10,8,3,14,9,17,0.00,3,Snow,281